sensor_id;sensor_type;location;lat;lon;timestamp;pressure;altitude;pressure_sealevel;temperature
11926;BMP180;6022;48.768;18.608;2023-07-09T00:02:28;98909.19;;;18.68
11926;BMP180;6022;48.768;18.608;2023-07-09T00:04:55;98913.66;;;18.66
11926;BMP180;6022;48.768;18.608;2023-07-09T00:07:30;98915.00;;;18.61
11926;BMP180;6022;48.768;18.608;2023-07-09T00:09:58;98911.09;;;18.57
11926;BMP180;6022;48.768;18.608;2023-07-09T00:12:26;98910.66;;;18.52
11926;BMP180;6022;48.768;18.608;2023-07-09T00:14:53;98897.16;;;18.50
11926;BMP180;6022;48.768;18.608;2023-07-09T00:19:54;98900.38;;;18.43
11926;BMP180;6022;48.768;18.608;2023-07-09T00:22:21;98899.56;;;18.42
11926;BMP180;6022;48.768;18.608;2023-07-09T00:24:52;98899.84;;;18.39
11926;BMP180;6022;48.768;18.608;2023-07-09T00:27:28;98898.06;;;18.40
11926;BMP180;6022;48.768;18.608;2023-07-09T00:29:57;98909.72;;;18.34
11926;BMP180;6022;48.768;18.608;2023-07-09T00:32:25;98898.06;;;18.30
11926;BMP180;6022;48.768;18.608;2023-07-09T00:34:53;98903.06;;;18.32
11926;BMP180;6022;48.768;18.608;2023-07-09T00:37:24;98900.47;;;18.22
11926;BMP180;6022;48.768;18.608;2023-07-09T00:39:55;98896.56;;;18.18
11926;BMP180;6022;48.768;18.608;2023-07-09T00:42:23;98895.63;;;18.19
11926;BMP180;6022;48.768;18.608;2023-07-09T00:44:53;98887.91;;;18.19
11926;BMP180;6022;48.768;18.608;2023-07-09T00:47:55;98898.44;;;18.17
11926;BMP180;6022;48.768;18.608;2023-07-09T00:50:39;98893.06;;;18.19
11926;BMP180;6022;48.768;18.608;2023-07-09T00:53:25;98894.00;;;18.18
11926;BMP180;6022;48.768;18.608;2023-07-09T00:56:03;98886.81;;;18.13
11926;BMP180;6022;48.768;18.608;2023-07-09T00:58:35;98888.44;;;18.14
11926;BMP180;6022;48.768;18.608;2023-07-09T01:01:11;98892.19;;;18.10
11926;BMP180;6022;48.768;18.608;2023-07-09T01:03:47;98892.81;;;18.02
11926;BMP180;6022;48.768;18.608;2023-07-09T01:06:26;98889.31;;;17.94
11926;BMP180;6022;48.768;18.608;2023-07-09T01:08:57;98892.41;;;17.88
11926;BMP180;6022;48.768;18.608;2023-07-09T01:11:24;98885.91;;;17.84
11926;BMP180;6022;48.768;18.608;2023-07-09T01:13:57;98896.38;;;17.72
11926;BMP180;6022;48.768;18.608;2023-07-09T01:16:39;98892.34;;;17.69
11926;BMP180;6022;48.768;18.608;2023-07-09T01:19:07;98898.00;;;17.63
11926;BMP180;6022;48.768;18.608;2023-07-09T01:21:35;98896.34;;;17.62
11926;BMP180;6022;48.768;18.608;2023-07-09T01:24:52;98896.09;;;17.65
11926;BMP180;6022;48.768;18.608;2023-07-09T01:27:25;98895.53;;;17.62
11926;BMP180;6022;48.768;18.608;2023-07-09T01:29:56;98893.22;;;17.59
11926;BMP180;6022;48.768;18.608;2023-07-09T01:32:23;98890.63;;;17.49
11926;BMP180;6022;48.768;18.608;2023-07-09T01:34:57;98894.25;;;17.47
11926;BMP180;6022;48.768;18.608;2023-07-09T01:37:27;98908.66;;;17.39
11926;BMP180;6022;48.768;18.608;2023-07-09T01:39:55;98904.91;;;17.42
11926;BMP180;6022;48.768;18.608;2023-07-09T01:42:25;98903.28;;;17.41
11926;BMP180;6022;48.768;18.608;2023-07-09T01:44:55;98903.03;;;17.44
11926;BMP180;6022;48.768;18.608;2023-07-09T01:47:23;98906.28;;;17.46
11926;BMP180;6022;48.768;18.608;2023-07-09T01:49:52;98907.28;;;17.35
11926;BMP180;6022;48.768;18.608;2023-07-09T01:52:29;98902.66;;;17.29
11926;BMP180;6022;48.768;18.608;2023-07-09T01:54:57;98903.47;;;17.29
11926;BMP180;6022;48.768;18.608;2023-07-09T01:57:27;98904.38;;;17.19
11926;BMP180;6022;48.768;18.608;2023-07-09T02:00:07;98908.81;;;17.17
11926;BMP180;6022;48.768;18.608;2023-07-09T02:02:38;98903.19;;;17.12
11926;BMP180;6022;48.768;18.608;2023-07-09T02:05:16;98906.13;;;17.18
11926;BMP180;6022;48.768;18.608;2023-07-09T02:07:44;98905.97;;;17.20
11926;BMP180;6022;48.768;18.608;2023-07-09T02:10:14;98904.59;;;17.16
11926;BMP180;6022;48.768;18.608;2023-07-09T02:12:41;98907.41;;;17.13
11926;BMP180;6022;48.768;18.608;2023-07-09T02:15:09;98898.19;;;17.10
11926;BMP180;6022;48.768;18.608;2023-07-09T02:17:36;98900.91;;;17.09
11926;BMP180;6022;48.768;18.608;2023-07-09T02:20:05;98906.50;;;17.03
11926;BMP180;6022;48.768;18.608;2023-07-09T02:22:35;98910.41;;;16.98
11926;BMP180;6022;48.768;18.608;2023-07-09T02:25:03;98905.63;;;16.93
11926;BMP180;6022;48.768;18.608;2023-07-09T02:27:31;98917.94;;;16.99
11926;BMP180;6022;48.768;18.608;2023-07-09T02:29:59;98920.28;;;17.02
11926;BMP180;6022;48.768;18.608;2023-07-09T02:32:27;98918.63;;;17.01
11926;BMP180;6022;48.768;18.608;2023-07-09T02:34:55;98920.09;;;16.94
11926;BMP180;6022;48.768;18.608;2023-07-09T02:37:25;98918.94;;;16.87
11926;BMP180;6022;48.768;18.608;2023-07-09T02:39:53;98928.75;;;16.82
11926;BMP180;6022;48.768;18.608;2023-07-09T02:42:23;98926.69;;;16.76
11926;BMP180;6022;48.768;18.608;2023-07-09T02:44:50;98919.25;;;16.73
11926;BMP180;6022;48.768;18.608;2023-07-09T02:47:19;98920.44;;;16.69
11926;BMP180;6022;48.768;18.608;2023-07-09T02:49:47;98929.66;;;16.61
11926;BMP180;6022;48.768;18.608;2023-07-09T02:52:14;98923.25;;;16.66
11926;BMP180;6022;48.768;18.608;2023-07-09T02:54:42;98925.13;;;16.64
11926;BMP180;6022;48.768;18.608;2023-07-09T02:57:09;98926.53;;;16.58
11926;BMP180;6022;48.768;18.608;2023-07-09T02:59:36;98931.44;;;16.50
11926;BMP180;6022;48.768;18.608;2023-07-09T03:02:04;98924.00;;;16.47
11926;BMP180;6022;48.768;18.608;2023-07-09T03:04:31;98934.13;;;16.48
11926;BMP180;6022;48.768;18.608;2023-07-09T03:06:59;98932.75;;;16.44
11926;BMP180;6022;48.768;18.608;2023-07-09T03:09:29;98932.38;;;16.49
11926;BMP180;6022;48.768;18.608;2023-07-09T03:11:56;98929.47;;;16.53
11926;BMP180;6022;48.768;18.608;2023-07-09T03:14:24;98934.47;;;16.55
11926;BMP180;6022;48.768;18.608;2023-07-09T03:16:51;98933.97;;;16.61
11926;BMP180;6022;48.768;18.608;2023-07-09T03:19:18;98937.34;;;16.61
11926;BMP180;6022;48.768;18.608;2023-07-09T03:21:45;98938.25;;;16.60
11926;BMP180;6022;48.768;18.608;2023-07-09T03:24:12;98939.09;;;16.61
11926;BMP180;6022;48.768;18.608;2023-07-09T03:26:41;98941.66;;;16.61
11926;BMP180;6022;48.768;18.608;2023-07-09T03:29:09;98947.81;;;16.58
11926;BMP180;6022;48.768;18.608;2023-07-09T03:31:36;98944.72;;;16.55
11926;BMP180;6022;48.768;18.608;2023-07-09T03:34:03;98941.47;;;16.53
11926;BMP180;6022;48.768;18.608;2023-07-09T03:36:31;98942.25;;;16.53
11926;BMP180;6022;48.768;18.608;2023-07-09T03:38:58;98948.78;;;16.57
11926;BMP180;6022;48.768;18.608;2023-07-09T03:41:25;98948.50;;;16.60
11926;BMP180;6022;48.768;18.608;2023-07-09T03:43:52;98950.16;;;16.61
11926;BMP180;6022;48.768;18.608;2023-07-09T03:46:20;98944.66;;;16.65
11926;BMP180;6022;48.768;18.608;2023-07-09T03:48:47;98943.31;;;16.82
11926;BMP180;6022;48.768;18.608;2023-07-09T03:51:17;98939.22;;;17.10
11926;BMP180;6022;48.768;18.608;2023-07-09T03:53:44;98942.50;;;17.33
11926;BMP180;6022;48.768;18.608;2023-07-09T03:56:12;98951.69;;;17.55
11926;BMP180;6022;48.768;18.608;2023-07-09T03:58:39;98945.31;;;17.79
11926;BMP180;6022;48.768;18.608;2023-07-09T04:01:06;98950.81;;;17.95
11926;BMP180;6022;48.768;18.608;2023-07-09T04:03:33;98945.34;;;17.89
11926;BMP180;6022;48.768;18.608;2023-07-09T04:06:01;98942.78;;;17.89
11926;BMP180;6022;48.768;18.608;2023-07-09T04:08:28;98941.34;;;17.96
11926;BMP180;6022;48.768;18.608;2023-07-09T04:11:00;98956.41;;;18.10
11926;BMP180;6022;48.768;18.608;2023-07-09T04:13:28;98948.59;;;18.20
11926;BMP180;6022;48.768;18.608;2023-07-09T04:15:56;98950.00;;;18.04
11926;BMP180;6022;48.768;18.608;2023-07-09T04:18:24;98955.41;;;18.01
11926;BMP180;6022;48.768;18.608;2023-07-09T04:20:52;98955.06;;;17.85
11926;BMP180;6022;48.768;18.608;2023-07-09T04:23:19;98958.53;;;17.75
11926;BMP180;6022;48.768;18.608;2023-07-09T04:25:47;98951.97;;;17.82
11926;BMP180;6022;48.768;18.608;2023-07-09T04:28:15;98946.56;;;17.85
11926;BMP180;6022;48.768;18.608;2023-07-09T04:30:49;98952.38;;;17.87
11926;BMP180;6022;48.768;18.608;2023-07-09T04:33:20;98946.44;;;17.86
11926;BMP180;6022;48.768;18.608;2023-07-09T04:35:49;98947.41;;;17.95
11926;BMP180;6022;48.768;18.608;2023-07-09T04:38:18;98950.72;;;18.06
11926;BMP180;6022;48.768;18.608;2023-07-09T04:40:46;98949.56;;;18.19
11926;BMP180;6022;48.768;18.608;2023-07-09T04:43:14;98953.78;;;18.39
11926;BMP180;6022;48.768;18.608;2023-07-09T04:45:41;98956.94;;;18.71
11926;BMP180;6022;48.768;18.608;2023-07-09T04:48:08;98957.16;;;19.62
11926;BMP180;6022;48.768;18.608;2023-07-09T04:50:36;98955.28;;;21.39
11926;BMP180;6022;48.768;18.608;2023-07-09T04:53:03;98949.34;;;23.03
11926;BMP180;6022;48.768;18.608;2023-07-09T04:55:30;98945.03;;;23.89
11926;BMP180;6022;48.768;18.608;2023-07-09T04:57:58;98943.41;;;24.64
11926;BMP180;6022;48.768;18.608;2023-07-09T05:00:25;98943.16;;;25.03
11926;BMP180;6022;48.768;18.608;2023-07-09T05:02:52;98941.59;;;25.67
11926;BMP180;6022;48.768;18.608;2023-07-09T05:05:20;98943.97;;;26.75
11926;BMP180;6022;48.768;18.608;2023-07-09T05:07:48;98932.53;;;27.59
11926;BMP180;6022;48.768;18.608;2023-07-09T05:10:16;98939.16;;;26.93
11926;BMP180;6022;48.768;18.608;2023-07-09T05:12:54;98944.13;;;27.09
11926;BMP180;6022;48.768;18.608;2023-07-09T05:15:23;98936.25;;;27.50
11926;BMP180;6022;48.768;18.608;2023-07-09T05:17:55;98932.13;;;28.36
11926;BMP180;6022;48.768;18.608;2023-07-09T05:20:30;98948.72;;;28.75
11926;BMP180;6022;48.768;18.608;2023-07-09T05:23:05;98947.88;;;28.09
11926;BMP180;6022;48.768;18.608;2023-07-09T05:29:46;98941.94;;;29.64
11926;BMP180;6022;48.768;18.608;2023-07-09T05:32:23;98937.94;;;30.80
11926;BMP180;6022;48.768;18.608;2023-07-09T05:34:56;98940.22;;;31.01
11926;BMP180;6022;48.768;18.608;2023-07-09T05:37:28;98933.63;;;30.55
11926;BMP180;6022;48.768;18.608;2023-07-09T05:40:07;98939.66;;;30.55
11926;BMP180;6022;48.768;18.608;2023-07-09T05:42:49;98943.06;;;27.78
11926;BMP180;6022;48.768;18.608;2023-07-09T05:45:16;98936.88;;;28.19
11926;BMP180;6022;48.768;18.608;2023-07-09T05:47:44;98943.16;;;29.03
11926;BMP180;6022;48.768;18.608;2023-07-09T05:50:11;98932.50;;;28.92
11926;BMP180;6022;48.768;18.608;2023-07-09T05:52:39;98939.09;;;29.97
11926;BMP180;6022;48.768;18.608;2023-07-09T05:55:09;98931.34;;;30.28
11926;BMP180;6022;48.768;18.608;2023-07-09T05:57:38;98939.28;;;30.89
11926;BMP180;6022;48.768;18.608;2023-07-09T06:00:09;98937.97;;;32.12
11926;BMP180;6022;48.768;18.608;2023-07-09T06:02:39;98938.41;;;31.50
11926;BMP180;6022;48.768;18.608;2023-07-09T06:05:13;98938.91;;;31.40
11926;BMP180;6022;48.768;18.608;2023-07-09T06:07:41;98940.69;;;31.82
11926;BMP180;6022;48.768;18.608;2023-07-09T06:10:12;98945.56;;;30.45
11926;BMP180;6022;48.768;18.608;2023-07-09T06:12:41;98939.81;;;31.94
11926;BMP180;6022;48.768;18.608;2023-07-09T06:15:11;98940.53;;;31.41
11926;BMP180;6022;48.768;18.608;2023-07-09T06:17:39;98941.78;;;32.63
11926;BMP180;6022;48.768;18.608;2023-07-09T06:20:08;98936.84;;;33.48
11926;BMP180;6022;48.768;18.608;2023-07-09T06:22:39;98943.13;;;34.03
11926;BMP180;6022;48.768;18.608;2023-07-09T06:25:18;98934.19;;;34.04
11926;BMP180;6022;48.768;18.608;2023-07-09T06:27:48;98943.81;;;33.99
11926;BMP180;6022;48.768;18.608;2023-07-09T06:30:16;98939.25;;;33.60
11926;BMP180;6022;48.768;18.608;2023-07-09T06:32:46;98946.09;;;34.07
11926;BMP180;6022;48.768;18.608;2023-07-09T06:35:14;98947.44;;;32.31
11926;BMP180;6022;48.768;18.608;2023-07-09T06:37:41;98945.41;;;31.56
11926;BMP180;6022;48.768;18.608;2023-07-09T06:40:09;98932.63;;;33.69
11926;BMP180;6022;48.768;18.608;2023-07-09T06:42:36;98941.34;;;34.87
11926;BMP180;6022;48.768;18.608;2023-07-09T06:45:05;98944.75;;;34.43
11926;BMP180;6022;48.768;18.608;2023-07-09T06:47:33;98934.69;;;33.90
11926;BMP180;6022;48.768;18.608;2023-07-09T06:50:01;98941.56;;;34.30
11926;BMP180;6022;48.768;18.608;2023-07-09T06:52:28;98942.22;;;33.75
11926;BMP180;6022;48.768;18.608;2023-07-09T06:54:57;98936.84;;;34.43
11926;BMP180;6022;48.768;18.608;2023-07-09T06:57:27;98933.94;;;34.84
11926;BMP180;6022;48.768;18.608;2023-07-09T06:59:54;98942.72;;;36.08
11926;BMP180;6022;48.768;18.608;2023-07-09T07:02:22;98940.59;;;35.03
11926;BMP180;6022;48.768;18.608;2023-07-09T07:04:49;98935.53;;;34.57
11926;BMP180;6022;48.768;18.608;2023-07-09T07:07:24;98934.88;;;34.50
11926;BMP180;6022;48.768;18.608;2023-07-09T07:09:54;98934.34;;;36.16
11926;BMP180;6022;48.768;18.608;2023-07-09T07:12:28;98942.81;;;35.59
11926;BMP180;6022;48.768;18.608;2023-07-09T07:15:01;98934.81;;;37.03
11926;BMP180;6022;48.768;18.608;2023-07-09T07:17:29;98935.97;;;37.48
11926;BMP180;6022;48.768;18.608;2023-07-09T07:19:59;98940.25;;;37.95
11926;BMP180;6022;48.768;18.608;2023-07-09T07:22:32;98932.75;;;35.73
11926;BMP180;6022;48.768;18.608;2023-07-09T07:24:59;98943.28;;;37.36
11926;BMP180;6022;48.768;18.608;2023-07-09T07:27:27;98938.75;;;37.32
11926;BMP180;6022;48.768;18.608;2023-07-09T07:29:54;98936.69;;;38.30
11926;BMP180;6022;48.768;18.608;2023-07-09T07:32:24;98932.50;;;36.85
11926;BMP180;6022;48.768;18.608;2023-07-09T07:34:58;98933.75;;;36.78
11926;BMP180;6022;48.768;18.608;2023-07-09T07:37:25;98929.84;;;37.83
11926;BMP180;6022;48.768;18.608;2023-07-09T07:40:10;98928.72;;;38.35
11926;BMP180;6022;48.768;18.608;2023-07-09T07:42:39;98925.63;;;38.43
11926;BMP180;6022;48.768;18.608;2023-07-09T07:45:06;98928.25;;;38.38
11926;BMP180;6022;48.768;18.608;2023-07-09T07:47:36;98927.59;;;39.27
11926;BMP180;6022;48.768;18.608;2023-07-09T07:50:06;98936.59;;;39.50
11926;BMP180;6022;48.768;18.608;2023-07-09T07:52:34;98929.19;;;39.42
11926;BMP180;6022;48.768;18.608;2023-07-09T07:55:06;98931.31;;;39.36
11926;BMP180;6022;48.768;18.608;2023-07-09T07:57:34;98928.59;;;38.76
11926;BMP180;6022;48.768;18.608;2023-07-09T08:00:02;98931.03;;;38.93
11926;BMP180;6022;48.768;18.608;2023-07-09T08:02:30;98919.09;;;38.90
11926;BMP180;6022;48.768;18.608;2023-07-09T08:04:59;98916.16;;;39.01
11926;BMP180;6022;48.768;18.608;2023-07-09T08:07:27;98925.97;;;39.16
11926;BMP180;6022;48.768;18.608;2023-07-09T08:09:54;98917.22;;;39.45
11926;BMP180;6022;48.768;18.608;2023-07-09T08:12:21;98920.69;;;39.26
11926;BMP180;6022;48.768;18.608;2023-07-09T08:14:48;98913.25;;;39.18
11926;BMP180;6022;48.768;18.608;2023-07-09T08:17:15;98913.50;;;38.87
11926;BMP180;6022;48.768;18.608;2023-07-09T08:19:48;98914.53;;;38.66
11926;BMP180;6022;48.768;18.608;2023-07-09T08:22:16;98901.25;;;38.76
11926;BMP180;6022;48.768;18.608;2023-07-09T08:24:43;98912.16;;;39.14
11926;BMP180;6022;48.768;18.608;2023-07-09T08:27:10;98906.06;;;39.03
11926;BMP180;6022;48.768;18.608;2023-07-09T08:29:37;98910.56;;;38.73
11926;BMP180;6022;48.768;18.608;2023-07-09T08:32:07;98904.97;;;38.70
11926;BMP180;6022;48.768;18.608;2023-07-09T08:34:34;98898.09;;;38.98
11926;BMP180;6022;48.768;18.608;2023-07-09T08:37:02;98901.81;;;39.02
11926;BMP180;6022;48.768;18.608;2023-07-09T08:39:30;98904.44;;;38.68
11926;BMP180;6022;48.768;18.608;2023-07-09T08:42:02;98902.56;;;38.54
11926;BMP180;6022;48.768;18.608;2023-07-09T08:50:12;98894.31;;;38.40
11926;BMP180;6022;48.768;18.608;2023-07-09T08:52:48;98892.81;;;38.79
11926;BMP180;6022;48.768;18.608;2023-07-09T08:55:29;98889.56;;;38.67
11926;BMP180;6022;48.768;18.608;2023-07-09T08:58:25;98893.59;;;39.04
11926;BMP180;6022;48.768;18.608;2023-07-09T09:00:59;98885.91;;;39.07
11926;BMP180;6022;48.768;18.608;2023-07-09T09:03:53;98885.38;;;38.81
11926;BMP180;6022;48.768;18.608;2023-07-09T09:06:30;98885.91;;;38.93
11926;BMP180;6022;48.768;18.608;2023-07-09T09:09:08;98897.06;;;39.14
11926;BMP180;6022;48.768;18.608;2023-07-09T09:14:43;98874.72;;;38.76
11926;BMP180;6022;48.768;18.608;2023-07-09T09:17:15;98885.38;;;38.91
11926;BMP180;6022;48.768;18.608;2023-07-09T09:19:50;98881.66;;;38.87
11926;BMP180;6022;48.768;18.608;2023-07-09T09:22:42;98876.84;;;39.18
11926;BMP180;6022;48.768;18.608;2023-07-09T09:25:30;98879.25;;;39.30
11926;BMP180;6022;48.768;18.608;2023-07-09T09:28:00;98887.78;;;39.22
11926;BMP180;6022;48.768;18.608;2023-07-09T09:30:31;98886.97;;;39.01
11926;BMP180;6022;48.768;18.608;2023-07-09T09:33:07;98874.03;;;38.05
11926;BMP180;6022;48.768;18.608;2023-07-09T09:35:43;98874.44;;;37.82
11926;BMP180;6022;48.768;18.608;2023-07-09T09:38:17;98879.13;;;38.21
11926;BMP180;6022;48.768;18.608;2023-07-09T09:41:08;98882.13;;;38.59
11926;BMP180;6022;48.768;18.608;2023-07-09T09:43:41;98867.72;;;38.21
11926;BMP180;6022;48.768;18.608;2023-07-09T09:46:19;98859.78;;;38.35
11926;BMP180;6022;48.768;18.608;2023-07-09T09:51:18;98868.94;;;36.23
11926;BMP180;6022;48.768;18.608;2023-07-09T09:53:57;98861.78;;;36.02
11926;BMP180;6022;48.768;18.608;2023-07-09T09:56:33;98869.94;;;36.43
11926;BMP180;6022;48.768;18.608;2023-07-09T09:59:01;98858.41;;;36.80
11926;BMP180;6022;48.768;18.608;2023-07-09T10:01:33;98860.69;;;37.03
11926;BMP180;6022;48.768;18.608;2023-07-09T10:04:04;98863.56;;;37.33
11926;BMP180;6022;48.768;18.608;2023-07-09T10:06:41;98857.34;;;36.29
11926;BMP180;6022;48.768;18.608;2023-07-09T10:09:51;98857.66;;;37.16
11926;BMP180;6022;48.768;18.608;2023-07-09T10:17:57;98854.84;;;34.72
11926;BMP180;6022;48.768;18.608;2023-07-09T10:20:45;98854.72;;;35.28
11926;BMP180;6022;48.768;18.608;2023-07-09T10:26:14;98852.38;;;37.21
11926;BMP180;6022;48.768;18.608;2023-07-09T10:35:22;98843.13;;;36.35
11926;BMP180;6022;48.768;18.608;2023-07-09T10:41:31;98840.47;;;37.64
11926;BMP180;6022;48.768;18.608;2023-07-09T10:44:21;98833.88;;;36.95
11926;BMP180;6022;48.768;18.608;2023-07-09T10:46:57;98835.91;;;36.04
11926;BMP180;6022;48.768;18.608;2023-07-09T10:49:38;98833.47;;;36.19
11926;BMP180;6022;48.768;18.608;2023-07-09T10:52:35;98834.25;;;36.46
11926;BMP180;6022;48.768;18.608;2023-07-09T10:55:32;98830.75;;;36.62
11926;BMP180;6022;48.768;18.608;2023-07-09T10:58:53;98826.75;;;36.12
11926;BMP180;6022;48.768;18.608;2023-07-09T11:01:40;98825.16;;;36.37
11926;BMP180;6022;48.768;18.608;2023-07-09T11:07:00;98830.44;;;35.85
11926;BMP180;6022;48.768;18.608;2023-07-09T11:09:32;98823.00;;;35.65
11926;BMP180;6022;48.768;18.608;2023-07-09T11:12:12;98828.50;;;35.80
11926;BMP180;6022;48.768;18.608;2023-07-09T11:18:33;98812.44;;;35.44
11926;BMP180;6022;48.768;18.608;2023-07-09T11:21:14;98806.97;;;34.32
11926;BMP180;6022;48.768;18.608;2023-07-09T11:26:30;98815.38;;;34.45
11926;BMP180;6022;48.768;18.608;2023-07-09T11:29:13;98807.53;;;34.33
11926;BMP180;6022;48.768;18.608;2023-07-09T11:31:46;98795.47;;;34.70
11926;BMP180;6022;48.768;18.608;2023-07-09T11:34:27;98792.53;;;33.56
11926;BMP180;6022;48.768;18.608;2023-07-09T11:37:12;98789.50;;;33.25
11926;BMP180;6022;48.768;18.608;2023-07-09T11:39:48;98790.09;;;33.77
11926;BMP180;6022;48.768;18.608;2023-07-09T11:42:34;98798.94;;;33.99
11926;BMP180;6022;48.768;18.608;2023-07-09T11:45:31;98794.78;;;34.74
11926;BMP180;6022;48.768;18.608;2023-07-09T11:50:54;98799.56;;;36.16
11926;BMP180;6022;48.768;18.608;2023-07-09T11:53:49;98783.53;;;36.54
11926;BMP180;6022;48.768;18.608;2023-07-09T11:56:27;98788.31;;;36.83
11926;BMP180;6022;48.768;18.608;2023-07-09T11:58:58;98784.22;;;36.66
11926;BMP180;6022;48.768;18.608;2023-07-09T12:01:40;98784.47;;;36.64
11926;BMP180;6022;48.768;18.608;2023-07-09T12:04:21;98779.78;;;36.45
11926;BMP180;6022;48.768;18.608;2023-07-09T12:06:57;98773.03;;;35.59
11926;BMP180;6022;48.768;18.608;2023-07-09T12:09:37;98771.97;;;35.17
11926;BMP180;6022;48.768;18.608;2023-07-09T12:12:26;98766.56;;;34.42
11926;BMP180;6022;48.768;18.608;2023-07-09T12:14:57;98760.34;;;34.21
11926;BMP180;6022;48.768;18.608;2023-07-09T12:17:28;98755.38;;;34.68
11926;BMP180;6022;48.768;18.608;2023-07-09T12:20:05;98755.72;;;33.84
11926;BMP180;6022;48.768;18.608;2023-07-09T12:22:41;98765.53;;;34.16
11926;BMP180;6022;48.768;18.608;2023-07-09T12:25:24;98761.78;;;34.88
11926;BMP180;6022;48.768;18.608;2023-07-09T12:27:52;98761.94;;;35.57
11926;BMP180;6022;48.768;18.608;2023-07-09T12:30:20;98757.34;;;35.95
11926;BMP180;6022;48.768;18.608;2023-07-09T12:32:52;98754.97;;;36.20
11926;BMP180;6022;48.768;18.608;2023-07-09T12:35:30;98751.41;;;36.35
11926;BMP180;6022;48.768;18.608;2023-07-09T12:38:00;98755.47;;;34.89
11926;BMP180;6022;48.768;18.608;2023-07-09T12:40:33;98757.09;;;35.11
11926;BMP180;6022;48.768;18.608;2023-07-09T12:43:02;98751.06;;;35.32
11926;BMP180;6022;48.768;18.608;2023-07-09T12:45:31;98747.59;;;35.32
11926;BMP180;6022;48.768;18.608;2023-07-09T12:47:59;98736.47;;;35.09
11926;BMP180;6022;48.768;18.608;2023-07-09T12:50:33;98735.03;;;34.80
11926;BMP180;6022;48.768;18.608;2023-07-09T12:53:14;98726.03;;;34.65
11926;BMP180;6022;48.768;18.608;2023-07-09T12:55:45;98727.41;;;34.67
11926;BMP180;6022;48.768;18.608;2023-07-09T12:58:28;98730.53;;;34.64
11926;BMP180;6022;48.768;18.608;2023-07-09T13:00:59;98725.09;;;34.71
11926;BMP180;6022;48.768;18.608;2023-07-09T13:03:31;98737.66;;;34.80
11926;BMP180;6022;48.768;18.608;2023-07-09T13:06:30;98724.53;;;34.85
11926;BMP180;6022;48.768;18.608;2023-07-09T13:09:10;98723.72;;;34.68
11926;BMP180;6022;48.768;18.608;2023-07-09T13:11:39;98724.97;;;34.44
11926;BMP180;6022;48.768;18.608;2023-07-09T13:14:19;98730.03;;;34.18
11926;BMP180;6022;48.768;18.608;2023-07-09T13:16:48;98718.47;;;33.92
11926;BMP180;6022;48.768;18.608;2023-07-09T13:19:19;98712.59;;;34.01
11926;BMP180;6022;48.768;18.608;2023-07-09T13:21:46;98716.72;;;33.97
11926;BMP180;6022;48.768;18.608;2023-07-09T13:24:24;98716.13;;;33.79
11926;BMP180;6022;48.768;18.608;2023-07-09T13:26:56;98702.91;;;33.62
11926;BMP180;6022;48.768;18.608;2023-07-09T13:29:34;98710.91;;;33.28
11926;BMP180;6022;48.768;18.608;2023-07-09T13:32:02;98710.78;;;33.35
11926;BMP180;6022;48.768;18.608;2023-07-09T13:34:34;98712.78;;;33.55
11926;BMP180;6022;48.768;18.608;2023-07-09T13:37:02;98708.91;;;33.58
11926;BMP180;6022;48.768;18.608;2023-07-09T13:39:33;98714.72;;;33.60
11926;BMP180;6022;48.768;18.608;2023-07-09T13:42:01;98706.50;;;33.56
11926;BMP180;6022;48.768;18.608;2023-07-09T13:44:30;98705.94;;;33.55
11926;BMP180;6022;48.768;18.608;2023-07-09T13:46:58;98712.78;;;33.55
11926;BMP180;6022;48.768;18.608;2023-07-09T13:49:27;98705.06;;;33.65
11926;BMP180;6022;48.768;18.608;2023-07-09T13:51:59;98708.22;;;33.79
11926;BMP180;6022;48.768;18.608;2023-07-09T13:54:33;98708.44;;;33.89
11926;BMP180;6022;48.768;18.608;2023-07-09T13:57:13;98703.63;;;33.58
11926;BMP180;6022;48.768;18.608;2023-07-09T13:59:53;98702.44;;;33.65
11926;BMP180;6022;48.768;18.608;2023-07-09T14:02:26;98705.50;;;33.74
11926;BMP180;6022;48.768;18.608;2023-07-09T14:05:05;98704.44;;;33.75
11926;BMP180;6022;48.768;18.608;2023-07-09T14:07:39;98707.97;;;33.80
11926;BMP180;6022;48.768;18.608;2023-07-09T14:10:20;98707.66;;;33.77
11926;BMP180;6022;48.768;18.608;2023-07-09T14:12:48;98704.69;;;33.73
11926;BMP180;6022;48.768;18.608;2023-07-09T14:15:22;98705.94;;;33.71
11926;BMP180;6022;48.768;18.608;2023-07-09T14:17:52;98701.69;;;33.54
11926;BMP180;6022;48.768;18.608;2023-07-09T14:20:22;98708.34;;;33.45
11926;BMP180;6022;48.768;18.608;2023-07-09T14:22:50;98705.31;;;33.36
11926;BMP180;6022;48.768;18.608;2023-07-09T14:25:22;98700.84;;;33.25
11926;BMP180;6022;48.768;18.608;2023-07-09T14:27:53;98707.06;;;33.08
11926;BMP180;6022;48.768;18.608;2023-07-09T14:30:25;98704.44;;;33.08
11926;BMP180;6022;48.768;18.608;2023-07-09T14:32:55;98703.28;;;33.04
11926;BMP180;6022;48.768;18.608;2023-07-09T14:35:27;98703.19;;;32.99
11926;BMP180;6022;48.768;18.608;2023-07-09T14:37:56;98698.25;;;33.03
11926;BMP180;6022;48.768;18.608;2023-07-09T14:40:26;98704.53;;;33.13
11926;BMP180;6022;48.768;18.608;2023-07-09T14:42:53;98692.63;;;33.11
11926;BMP180;6022;48.768;18.608;2023-07-09T14:45:27;98680.66;;;33.03
11926;BMP180;6022;48.768;18.608;2023-07-09T14:48:20;98689.56;;;33.02
11926;BMP180;6022;48.768;18.608;2023-07-09T14:50:51;98692.56;;;32.94
11926;BMP180;6022;48.768;18.608;2023-07-09T14:53:28;98683.63;;;32.84
11926;BMP180;6022;48.768;18.608;2023-07-09T14:55:55;98688.91;;;32.73
11926;BMP180;6022;48.768;18.608;2023-07-09T14:58:27;98679.97;;;32.74
11926;BMP180;6022;48.768;18.608;2023-07-09T15:00:58;98675.53;;;32.63
11926;BMP180;6022;48.768;18.608;2023-07-09T15:03:26;98673.50;;;32.53
11926;BMP180;6022;48.768;18.608;2023-07-09T15:05:54;98674.97;;;32.49
11926;BMP180;6022;48.768;18.608;2023-07-09T15:08:24;98671.31;;;32.39
11926;BMP180;6022;48.768;18.608;2023-07-09T15:10:54;98667.81;;;32.04
11926;BMP180;6022;48.768;18.608;2023-07-09T15:13:39;98665.44;;;32.14
11926;BMP180;6022;48.768;18.608;2023-07-09T15:16:06;98652.75;;;32.11
11926;BMP180;6022;48.768;18.608;2023-07-09T15:18:39;98669.41;;;31.76
11926;BMP180;6022;48.768;18.608;2023-07-09T15:21:10;98672.97;;;31.82
11926;BMP180;6022;48.768;18.608;2023-07-09T15:23:45;98675.31;;;31.90
11926;BMP180;6022;48.768;18.608;2023-07-09T15:26:15;98675.56;;;32.00
11926;BMP180;6022;48.768;18.608;2023-07-09T15:28:44;98672.38;;;31.98